Bulverde, Texas
Current Conditions -  °F | °C
As of 10:51 AM on Thursday 23 Oct 2014 (Local Time) from KSAT Reporting Station
Few Clouds Few Clouds  
Wind Chill: 75°   Ceiling: Unl
Heat Index: 75°   Visibility: 10mi
Dew Point: 61°   Wind: 0mph
Humidity: 62%   Direction: NA
Pressure: 30.15"   Gusts: NA
Location:  29.74°N, 98.45°W
Report Text: KSAT 231551Z 00000KT 10SM FEW030 FEW250 24/16 A3015 RMK AO2 SLP195 T02390161 $
Loading
Personal Weather Stations






























Interactive Weather Map
Tropical Storm Tracking
New forecast layout! Learn more

10-Day Weather Forecast

Advertisements
Track Severe Weather on mobile